• Join FlightAware (Why Join?)
  • Login
  • US Flag 
09:00PM EDT


 

Airport Tracker/Info


-or-


 

Live Flight TrackerFlight Track Log ✈ SWA127 ✈ 29-Apr-2013 ✈ KMCI - KHOU

Flight Track Log - Related Links

Times and Time Zones

All times are in EDT time to prevent confusion due to time zone crossing. See the SWA127 flight status page for this flight to view local times or setup timezone preferences in your user account.

Time Position Orientation Groundspeed Altitude Reporting Facility
EDT Latitude Longitude Course Direction KTS MPH feet Rate Location/Type
08:53AM 39.2833 -94.7333 207° Southwest 180 207 1,900  Level Kansas City TRACON
08:54AM 39.2333 -94.7667 207° Southwest 220 253 4,100 1,920 Climbing Kansas City TRACON
08:55AM 39.1667 -94.8000 201° Southwest 269 310 6,200 2,280 Climbing Kansas City TRACON
08:56AM 39.1175 -94.8161 194° South 262 302 8,300 2,220 Climbing Kansas City Center
08:57AM 39.0311 -94.8444 194° South 286 329 10,600 2,220 Climbing Kansas City Center
08:58AM 38.9422 -94.8747 195° South 340 391 12,900 2,400 Climbing Kansas City Center
08:59AM 38.8336 -94.9100 194° South 359 413 15,600 2,220 Climbing Kansas City Center
09:00AM 38.7358 -94.9422 194° South 374 430 17,500 2,040 Climbing Kansas City Center
09:01AM 38.6333 -94.9775 195° South 396 456 19,800 2,100 Climbing Kansas City Center
09:02AM 38.5136 -95.0169 194° South 398 458 21,900 1,860 Climbing Kansas City Center
09:03AM 38.4081 -95.0500 194° South 405 466 23,700 1,680 Climbing Kansas City Center
09:04AM 38.2839 -95.0889 194° South 409 471 25,400 1,500 Climbing Kansas City Center
09:05AM 38.1747 -95.1256 195° South 420 483 26,900 1,260 Climbing Kansas City Center
09:06AM 38.0633 -95.1639 195° South 431 496 28,000 1,380 Climbing Kansas City Center
09:07AM 37.9267 -95.2106 195° South 439 505 29,800 1,680 Climbing Kansas City Center
09:08AM 37.8125 -95.2478 194° South 428 493 31,500 1,380 Climbing Kansas City Center
09:09AM 37.7000 -95.2847 195° South 419 482 32,700 1,020 Climbing Kansas City Center
09:10AM 37.5875 -95.3239 195° South 419 482 33,700 900 Climbing Kansas City Center
09:11AM 37.4739 -95.3622 195° South 421 484 34,600 600 Climbing Kansas City Center
09:12AM 37.3603 -95.3997 195° South 422 486 35,000 180 Climbing Kansas City Center
09:13AM 37.2467 -95.4389 195° South 423 487 35,000  Level Kansas City Center
09:14AM 37.1328 -95.4772 195° South 422 486 35,000  Level Kansas City Center
09:15AM 36.9975 -95.5231 195° South 420 483 35,000  Level Kansas City Center
09:16AM 36.8847 -95.5608 195° South 420 483 35,000  Level Kansas City Center
09:17AM 36.7722 -95.5981 195° South 419 482 35,000  Level Kansas City Center
09:18AM 36.6597 -95.6361 195° South 420 483 35,000  Level Kansas City Center
09:19AM 36.5356 -95.6783 195° South 422 486 35,000  Level Kansas City Center
09:20AM 36.4214 -95.7136 194° South 422 486 35,000 240 Level Kansas City Center
09:21AM 36.3081 -95.7517 195° South 422 486 35,600 480 Climbing Kansas City Center
09:22AM 36.1883 -95.7906 195° South 419 482 36,000 180 Climbing Kansas City Center
09:24AM 36.0767 -95.8294 196° South 419 482 36,000  Level Kansas City Center
09:25AM 35.9644 -95.8683 196° South 418 481 36,000  Level Kansas City Center
09:26AM 35.8517 -95.9075 196° South 420 483 36,000  Level Kansas City Center
09:27AM 35.7381 -95.9472 196° South 422 486 36,000  Level Kansas City Center
09:28AM 35.6025 -95.9942 196° South 421 484 36,000  Level Fort Worth Center
09:29AM 35.4906 -96.0344 196° South 426 490 36,000  Level Fort Worth Center
09:30AM 35.3761 -96.0744 196° South 426 490 36,000  Level Fort Worth Center
09:31AM 35.2619 -96.1092 194° South 426 490 36,000  Level Fort Worth Center
09:32AM 35.1517 -96.1489 196° South 426 490 36,000  Level Fort Worth Center
09:33AM 35.0353 -96.1889 196° South 426 490 36,000  Level Fort Worth Center
09:34AM 34.9231 -96.2283 196° South 426 490 36,000  Level Fort Worth Center
09:35AM 34.8108 -96.2678 196° South 426 490 36,000  Level Fort Worth Center
09:36AM 34.6964 -96.3072 196° South 426 490 36,000  Level Fort Worth Center
09:37AM 34.5861 -96.3442 195° South 426 490 36,000  Level Fort Worth Center
09:38AM 34.4694 -96.3808 195° South 426 490 36,000  Level Fort Worth Center
09:39AM 34.3553 -96.4225 197° South 426 490 36,000  Level Fort Worth Center
09:40AM 34.2428 -96.4589 195° South 426 490 36,000  Level Fort Worth Center
09:41AM 34.1283 -96.5003 197° South 426 490 36,000  Level Fort Worth Center
09:42AM 34.0158 -96.5339 194° South 432 497 36,000  Level Fort Worth Center
09:43AM 33.9014 -96.5753 197° South 432 497 36,000  Level Fort Worth Center
09:44AM 33.8036 -96.6061 195° South 420 483 36,000  Level Fort Worth Center
09:45AM 33.6786 -96.6472 195° South 415 478 36,000  Level Fort Worth Center
09:46AM 33.5764 -96.6806 195° South 421 484 36,000  Level Fort Worth Center
09:47AM 33.4514 -96.7239 196° South 426 490 36,000  Level Fort Worth Center
09:48AM 33.3472 -96.7569 195° South 426 490 36,000  Level Fort Worth Center
09:49AM 33.2222 -96.7975 195° South 431 496 36,000  Level Fort Worth Center
09:50AM 33.1181 -96.8331 196° South 431 496 36,000  Level Fort Worth Center
09:51AM 32.9889 -96.8736 195° South 436 502 36,000  Level Fort Worth Center
09:52AM 32.8844 -96.9014 193° South 436 502 36,000  Level Fort Worth Center
09:53AM 32.7508 -96.8972 178° South 436 502 36,000  Level Fort Worth Center
09:54AM 32.6403 -96.8903 177° South 443 510 36,000  Level Fort Worth Center
09:55AM 32.5044 -96.8839 178° South 443 510 36,000  Level Fort Worth Center
09:56AM 32.3939 -96.8769 177° South 443 510 36,000  Level Fort Worth Center
09:57AM 32.2622 -96.8706 178° South 443 510 36,000  Level Fort Worth Center
09:58AM 32.1558 -96.8661 178° South 438 504 36,000  Level Fort Worth Center
09:59AM 32.0325 -96.8594 177° South 443 510 36,000  Level Fort Worth Center
10:00AM 31.9031 -96.8506 177° South 437 503 36,000  Level Fort Worth Center
10:01AM 31.7842 -96.8414 176° South 437 503 36,000  Level Fort Worth Center
10:03AM 31.5075 -96.8064 174° South 431 496 36,000  Level Houston Center
10:04AM 31.3878 -96.7653 164° South 445 512 36,000 -1,020 Level Houston Center
10:05AM 31.2733 -96.7111 158° South 440 506 34,000 -2,340 Descending Houston Center
10:06AM 31.1569 -96.6550 158° South 443 510 31,200 -2,760 Descending Houston Center
10:07AM 31.0244 -96.5939 158° South 435 501 28,400 -2,460 Descending Houston Center
10:08AM 30.9172 -96.5417 157° South 418 481 26,200 -2,160 Descending Houston Center
10:09AM 30.8128 -96.4914 158° South 404 465 24,000 -2,100 Descending Houston Center
10:10AM 30.7119 -96.4450 158° South 391 450 21,900 -1,980 Descending Houston Center
10:11AM 30.6192 -96.4000 157° South 366 421 20,000 -1,860 Descending Houston Center
10:12AM 30.5278 -96.3575 158° South 350 403 18,100 -1,920 Descending Houston Center
10:13AM 30.4400 -96.3156 158° South 340 391 16,100 -2,040 Descending Houston Center
10:14AM 30.3719 -96.2861 160° South 331 381 14,600 -1,980 Descending Houston Center
10:14AM 30.3544 -96.2761 154° Southeast 329 379 14,100 -1,920 Descending Houston Center
10:15AM 30.2558 -96.2300 158° South 325 374 12,000 -1,500 Descending Houston Center
10:16AM 30.1750 -96.1911 157° South 314 361 11,000 -540 Descending Houston Center
10:17AM 30.1050 -96.1525 154° Southeast 312 359 10,900 -60 Descending Houston Center
10:19AM 30.0353 -96.0961 145° Southeast 312 359 10,900  Level Houston Center
10:20AM 29.9628 -96.0172 137° Southeast 312 359 11,000  Climbing Houston Center
10:21AM 29.8986 -95.9467 136° Southeast 317 365 11,000 -120 Level Houston Center
10:22AM 29.8369 -95.8789 136° Southeast 309 356 10,800 -780 Descending Houston Center
10:23AM 29.7792 -95.8167 137° Southeast 288 331 9,400 -1,620 Descending Houston Center
10:24AM 29.7111 -95.7422 136° Southeast 282 325 7,500 -1,260 Descending Houston Center
10:25AM 29.6581 -95.6833 136° Southeast 270 311 6,800 -840 Descending Houston Center
10:26AM 29.6097 -95.6311 137° Southeast 221 254 5,800 -1,020 Descending Houston Center
10:27AM 29.5697 -95.5869 136° Southeast 222 255 4,700 -960 Descending Houston Center
10:28AM 29.5281 -95.5342 132° Southeast 224 258 3,900 -900 Descending Houston Center
10:29AM 29.5122 -95.4575 103° East 198 228 2,900 -960 Descending Houston Center
10:30AM 29.5361 -95.3972 65° Northeast 197 227 2,000 -480 Descending Houston Center
10:31AM 29.5725 -95.3594 42° Northeast 193 222 1,900 -600 Descending Houston Center
10:32AM 29.6069 -95.3214 44° Northeast 156 180 900 -840 Descending Houston Center
10:33AM 29.6347 -95.2903 44° Northeast 159 183 200 -660 Descending Houston Center
10:35AM 29.6333 -95.2667 47° Northeast  Level FlightAware Approximate